Time;durP1;ratioP1;P1;durP2;ratioP2;P2;SDS_P1;SDS_P2;PMS_P1;PMS_P2;Temp;Humidity;BMP_temperature;BMP_pressure;BME280_temperature;BME280_humidity;BME280_pressure;Samples;Min_cycle;Max_cycle;Signal;HPM_P1;HPM_P2
2022/03/31 00:01:02;;;;;;;;;;;19.10;46.60;;;;;;5085349;27;42861;-75
2022/03/31 00:03:28;;;;;;;;;;;19.20;46.50;;;;;;5084905;27;43036;-74
2022/03/31 00:05:53;;;;;;;;;;;19.20;47.10;;;;;;5085432;27;43051;-75
2022/03/31 00:08:20;;;;;;;;;;;19.20;46.50;;;;;;5085427;27;43378;-74
2022/03/31 00:10:47;;;;;;;;;;;19.20;46.70;;;;;;5085256;27;42832;-75
2022/03/31 00:13:14;;;;;;;;;;;19.10;47.20;;;;;;5084883;27;43186;-74
2022/03/31 00:15:40;;;;;;;;;;;19.20;47.40;;;;;;5084619;27;42873;-74
2022/03/31 00:18:06;;;;;;;;;;;19.10;46.60;;;;;;5084826;27;43597;-75
2022/03/31 00:20:32;;;;;;;;;;;19.20;46.60;;;;;;5085062;27;42998;-74
2022/03/31 00:22:57;;;;;;;;;;;19.20;47.10;;;;;;5084609;27;43678;-74
2022/03/31 00:25:29;;;;;;;;;;;19.40;47.30;;;;;;5084970;27;42887;-74
2022/03/31 00:27:57;;;;;;;;;;;19.10;45.20;;;;;;5084855;27;43449;-74
2022/03/31 00:30:23;;;;;;;;;;;19.10;46.50;;;;;;5084356;27;42932;-74
2022/03/31 00:32:49;;;;;;;;;;;19.10;47.10;;;;;;5084602;27;43739;-75
2022/03/31 00:35:14;;;;;;;;;;;19.10;46.50;;;;;;5085152;27;42996;-74
2022/03/31 00:37:44;;;;;;;;;;;19.10;47.00;;;;;;5084455;27;43505;-75
2022/03/31 00:40:14;;;;;;;;;;;19.20;46.40;;;;;;5084658;27;42920;-75
2022/03/31 00:42:41;;;;;;;;;;;19.30;46.70;;;;;;5084720;27;43621;-75
2022/03/31 00:45:13;;;;;;;;;;;19.20;46.50;;;;;;5084929;27;42836;-74
2022/03/31 00:47:39;;;;;;;;;;;19.30;46.60;;;;;;5084789;27;43828;-76
2022/03/31 00:50:05;;;;;;;;;;;19.00;46.90;;;;;;5084106;28;42929;-75
2022/03/31 00:52:30;;;;;;;;;;;19.30;46.60;;;;;;5083947;27;43463;-75
2022/03/31 00:54:56;;;;;;;;;;;19.20;46.70;;;;;;5084811;27;43045;-76
2022/03/31 00:57:22;;;;;;;;;;;19.10;47.10;;;;;;5084451;27;44014;-75
2022/03/31 00:59:47;;;;;;;;;;;19.20;46.60;;;;;;5084701;27;43028;-75
2022/03/31 01:02:14;;;;;;;;;;;19.20;46.50;;;;;;5082408;27;43757;-77
2022/03/31 01:04:40;;;;;;;;;;;17.20;45.60;;;;;;5082918;27;43413;-76
2022/03/31 01:07:05;;;;;;;;;;;19.20;46.50;;;;;;5083547;27;42969;-76
2022/03/31 01:09:32;;;;;;;;;;;19.30;47.20;;;;;;5083411;27;43118;-76
2022/03/31 01:11:58;;;;;;;;;;;19.10;46.50;;;;;;5083662;27;42743;-74
2022/03/31 01:14:24;;;;;;;;;;;19.10;47.00;;;;;;5083080;27;42947;-75
2022/03/31 01:16:49;;;;;;;;;;;19.10;47.00;;;;;;5083649;27;42928;-75
2022/03/31 01:19:15;;;;;;;;;;;19.10;47.20;;;;;;5083272;28;43044;-76
2022/03/31 01:21:42;;;;;;;;;;;19.20;46.60;;;;;;5083918;28;43876;-76
2022/03/31 01:24:08;;;;;;;;;;;19.10;46.70;;;;;;5081425;28;43120;-76
2022/03/31 01:26:40;;;;;;;;;;;19.20;46.90;;;;;;5083832;28;43931;-75
2022/03/31 01:29:06;;;;;;;;;;;19.00;47.00;;;;;;5083205;27;43026;-74
2022/03/31 01:31:32;;;;;;;;;;;19.20;46.50;;;;;;5083709;27;42921;-73
2022/03/31 01:33:58;;;;;;;;;;;19.20;46.50;;;;;;5085812;27;42943;-74
2022/03/31 01:36:24;;;;;;;;;;;19.20;46.50;;;;;;5086690;27;44286;-75
2022/03/31 01:38:50;;;;;;;;;;;19.10;46.50;;;;;;5086732;27;42914;-75
2022/03/31 01:41:16;;;;;;;;;;;19.10;46.40;;;;;;5087269;27;43717;-75
2022/03/31 01:43:42;;;;;;;;;;;19.20;46.50;;;;;;5087377;27;42961;-76
2022/03/31 01:46:08;;;;;;;;;;;19.00;46.30;;;;;;5086078;27;43988;-76
2022/03/31 01:48:34;;;;;;;;;;;19.30;46.50;;;;;;5087336;27;42874;-75
2022/03/31 01:51:00;;;;;;;;;;;19.10;46.40;;;;;;5087197;27;42972;-74
2022/03/31 01:53:25;;;;;;;;;;;19.30;46.50;;;;;;5086725;28;42929;-75
2022/03/31 01:55:51;;;;;;;;;;;19.00;46.30;;;;;;5086367;28;43542;-76
2022/03/31 01:58:17;;;;;;;;;;;19.10;46.90;;;;;;5087201;27;42888;-75
2022/03/31 02:00:42;;;;;;;;;;;19.30;46.50;;;;;;5086950;27;42965;-75
2022/03/31 02:03:08;;;;;;;;;;;19.00;46.20;;;;;;5086222;27;43043;-75
2022/03/31 02:05:33;;;;;;;;;;;19.10;46.30;;;;;;5086800;27;43428;-75
2022/03/31 02:07:59;;;;;;;;;;;19.00;46.30;;;;;;5086087;27;42964;-75
2022/03/31 02:10:27;;;;;;;;;;;19.10;46.90;;;;;;5086274;27;42905;-75
2022/03/31 02:12:54;;;;;;;;;;;19.10;44.80;;;;;;5086796;27;42937;-74
2022/03/31 02:15:22;;;;;;;;;;;19.10;46.40;;;;;;5084482;28;43538;-75
2022/03/31 02:17:48;;;;;;;;;;;19.10;46.70;;;;;;5086179;27;43181;-75
2022/03/31 02:20:14;;;;;;;;;;;19.10;46.30;;;;;;5086175;27;43015;-75
2022/03/31 02:22:39;;;;;;;;;;;19.00;46.90;;;;;;5086715;27;43047;-76
2022/03/31 02:25:09;;;;;;;;;;;20.80;47.20;;;;;;5086451;27;42957;-75
2022/03/31 02:27:35;;;;;;;;;;;19.00;46.30;;;;;;5087355;27;42932;-75
2022/03/31 02:30:02;;;;;;;;;;;19.00;46.30;;;;;;5087136;27;42926;-74
2022/03/31 02:32:27;;;;;;;;;;;19.00;46.10;;;;;;5086515;27;43098;-74
2022/03/31 02:34:53;;;;;;;;;;;19.00;46.70;;;;;;5085183;27;43120;-75
2022/03/31 02:37:19;;;;;;;;;;;19.10;46.30;;;;;;5084888;27;43324;-75
2022/03/31 02:39:44;;;;;;;;;;;19.10;46.20;;;;;;5086443;28;42945;-76
2022/03/31 02:42:10;;;;;;;;;;;19.20;46.30;;;;;;5086052;27;43045;-76
2022/03/31 02:44:35;;;;;;;;;;;18.90;46.10;;;;;;5085176;27;43504;-77
2022/03/31 02:47:01;;;;;;;;;;;19.10;46.20;;;;;;5085881;28;42933;-74
2022/03/31 02:49:26;;;;;;;;;;;19.20;46.40;;;;;;5085364;28;43036;-74
2022/03/31 02:51:52;;;;;;;;;;;19.00;46.90;;;;;;5085493;27;43219;-75
2022/03/31 02:57:02;;;;;;;;;;;19.00;45.60;;;;;;5086373;28;42958;-76
2022/03/31 02:59:30;;;;;;;;;;;19.10;46.10;;;;;;5086230;27;42915;-77
2022/03/31 03:01:56;;;;;;;;;;;19.10;46.00;;;;;;5085446;27;43251;-77
2022/03/31 03:04:23;;;;;;;;;;;19.10;46.20;;;;;;5086028;28;42964;-77
2022/03/31 03:06:48;;;;;;;;;;;19.10;46.10;;;;;;5085346;27;43024;-83
2022/03/31 03:09:14;;;;;;;;;;;19.10;46.20;;;;;;5085594;27;43560;-75
2022/03/31 03:11:40;;;;;;;;;;;19.10;46.20;;;;;;5086026;27;42880;-78
2022/03/31 03:14:06;;;;;;;;;;;19.10;46.20;;;;;;5084975;27;43088;-76
2022/03/31 03:16:32;;;;;;;;;;;19.20;46.20;;;;;;5085572;27;43238;-76
2022/03/31 03:18:59;;;;;;;;;;;;;;;;;;5085013;27;42959;-75
2022/03/31 03:21:24;;;;;;;;;;;19.20;46.20;;;;;;5085076;28;43019;-76
2022/03/31 03:23:50;;;;;;;;;;;19.10;46.20;;;;;;5084708;27;43706;-75
2022/03/31 03:26:16;;;;;;;;;;;19.10;46.70;;;;;;5085836;27;43096;-76
2022/03/31 03:28:41;;;;;;;;;;;19.10;46.20;;;;;;5083470;28;42890;-76
2022/03/31 03:31:07;;;;;;;;;;;19.10;46.70;;;;;;5085598;27;42933;-77
2022/03/31 03:33:33;;;;;;;;;;;19.00;46.20;;;;;;5085822;27;43503;-75
2022/03/31 03:35:59;;;;;;;;;;;19.00;46.20;;;;;;5084720;27;43122;-76
2022/03/31 03:38:25;;;;;;;;;;;;;;;;;;5083765;27;43486;-77
2022/03/31 03:40:51;;;;;;;;;;;19.20;44.70;;;;;;5084385;28;43249;-75
2022/03/31 03:43:16;;;;;;;;;;;19.10;46.80;;;;;;5084763;27;43272;-75
2022/03/31 03:45:42;;;;;;;;;;;19.20;46.20;;;;;;5085218;27;43071;-76
2022/03/31 03:48:10;;;;;;;;;;;19.20;46.20;;;;;;5084835;27;42993;-76
2022/03/31 03:50:36;;;;;;;;;;;19.10;46.10;;;;;;5085032;28;42955;-76
2022/03/31 03:53:03;;;;;;;;;;;19.30;46.00;;;;;;5082804;28;43077;-77
2022/03/31 03:55:32;;;;;;;;;;;19.10;46.10;;;;;;5083681;27;43173;-75
2022/03/31 03:57:59;;;;;;;;;;;19.20;46.10;;;;;;5078533;28;44787;-75
2022/03/31 04:00:24;;;;;;;;;;;19.10;46.50;;;;;;5069566;27;42918;-76
2022/03/31 04:02:50;;;;;;;;;;;19.10;45.80;;;;;;5084041;27;43826;-77
2022/03/31 04:05:16;;;;;;;;;;;19.10;46.10;;;;;;5082928;28;43258;-77
2022/03/31 04:07:42;;;;;;;;;;;19.00;46.00;;;;;;5082724;28;43403;-75
2022/03/31 04:10:09;;;;;;;;;;;19.00;46.20;;;;;;5083259;28;43390;-76
2022/03/31 04:12:35;;;;;;;;;;;18.90;46.10;;;;;;5083862;28;43548;-77
2022/03/31 04:15:02;;;;;;;;;;;19.20;46.30;;;;;;5084698;27;42987;-75
2022/03/31 04:17:28;;;;;;;;;;;19.20;46.20;;;;;;5085640;28;43435;-76
2022/03/31 04:19:54;;;;;;;;;;;19.20;46.40;;;;;;5083737;28;43224;-74
2022/03/31 04:22:19;;;;;;;;;;;19.10;46.60;;;;;;5083096;28;42986;-74
2022/03/31 04:24:45;;;;;;;;;;;19.10;46.10;;;;;;5084475;28;42902;-76
2022/03/31 04:27:11;;;;;;;;;;;19.10;46.80;;;;;;5084704;28;42945;-76
2022/03/31 04:29:36;;;;;;;;;;;19.00;46.10;;;;;;5082947;28;43065;-77
2022/03/31 04:32:02;;;;;;;;;;;19.10;46.30;;;;;;5081737;28;43222;-76
2022/03/31 04:34:27;;;;;;;;;;;19.20;46.30;;;;;;5082345;28;43111;-77
2022/03/31 04:36:53;;;;;;;;;;;19.10;46.30;;;;;;5083937;28;43179;-78
2022/03/31 04:39:18;;;;;;;;;;;19.10;46.20;;;;;;5084489;28;42914;-75
2022/03/31 04:41:44;;;;;;;;;;;19.10;46.10;;;;;;5083278;28;42960;-75
2022/03/31 04:44:10;;;;;;;;;;;19.10;46.80;;;;;;5084665;28;42968;-75
2022/03/31 04:46:35;;;;;;;;;;;19.00;46.30;;;;;;5069663;28;42878;-76
2022/03/31 04:49:01;;;;;;;;;;;19.20;46.30;;;;;;5063418;28;43238;-79
2022/03/31 04:51:27;;;;;;;;;;;19.10;46.90;;;;;;5062237;28;43557;-79
2022/03/31 04:53:52;;;;;;;;;;;19.20;46.30;;;;;;5064865;28;42938;-77
2022/03/31 04:56:18;;;;;;;;;;;19.10;46.80;;;;;;5064119;28;43386;-76
2022/03/31 04:58:44;;;;;;;;;;;19.20;46.40;;;;;;5065377;28;43029;-76
2022/03/31 05:01:10;;;;;;;;;;;19.50;46.90;;;;;;5068011;28;43027;-76
2022/03/31 05:03:36;;;;;;;;;;;19.10;46.30;;;;;;5072110;28;43134;-75
2022/03/31 05:06:02;;;;;;;;;;;19.00;46.80;;;;;;5069376;28;44125;-76
2022/03/31 05:08:27;;;;;;;;;;;19.10;46.30;;;;;;5065687;28;42934;-79
2022/03/31 05:10:53;;;;;;;;;;;19.10;46.70;;;;;;5066729;28;43639;-77
2022/03/31 05:13:18;;;;;;;;;;;19.00;46.20;;;;;;5069784;28;43229;-76
2022/03/31 05:15:47;;;;;;;;;;;19.10;46.40;;;;;;5069547;28;43367;-79
2022/03/31 05:18:13;;;;;;;;;;;19.00;46.30;;;;;;5063311;28;42960;-79
2022/03/31 05:20:39;;;;;;;;;;;19.00;47.10;;;;;;5066851;28;42979;-77
2022/03/31 05:23:05;;;;;;;;;;;19.10;47.00;;;;;;5075631;28;42984;-79
2022/03/31 05:25:31;;;;;;;;;;;19.20;46.30;;;;;;5088245;28;42962;-78
2022/03/31 05:27:59;;;;;;;;;;;19.30;46.50;;;;;;5082662;28;43171;-78
2022/03/31 05:30:25;;;;;;;;;;;19.00;46.70;;;;;;5067245;28;43095;-80
2022/03/31 05:32:53;;;;;;;;;;;19.10;46.20;;;;;;5050102;28;43158;-76
2022/03/31 05:35:19;;;;;;;;;;;18.90;47.40;;;;;;5066489;28;43064;-74
2022/03/31 05:37:45;;;;;;;;;;;19.10;48.10;;;;;;5069251;28;42950;-78
2022/03/31 05:40:11;;;;;;;;;;;18.80;48.70;;;;;;5065620;28;43488;-78
2022/03/31 05:42:37;;;;;;;;;;;18.90;48.70;;;;;;5065827;28;43256;-77
2022/03/31 05:45:04;;;;;;;;;;;18.70;49.30;;;;;;5066173;28;43201;-80
2022/03/31 05:47:29;;;;;;;;;;;18.90;49.30;;;;;;5065096;28;43114;-79
2022/03/31 05:49:55;;;;;;;;;;;18.80;48.90;;;;;;5066764;28;43436;-79
2022/03/31 05:52:21;;;;;;;;;;;18.80;49.10;;;;;;5067051;28;42984;-79
2022/03/31 05:54:47;;;;;;;;;;;18.80;49.20;;;;;;5067202;28;43651;-80
2022/03/31 05:57:12;;;;;;;;;;;18.60;49.00;;;;;;5066810;28;43019;-82
2022/03/31 05:59:38;;;;;;;;;;;18.80;49.30;;;;;;5066625;28;43495;-81
2022/03/31 06:02:03;;;;;;;;;;;18.70;49.30;;;;;;5065941;28;43181;-80
2022/03/31 06:04:29;;;;;;;;;;;18.50;49.40;;;;;;5047911;28;44502;-81
2022/03/31 06:06:58;;;;;;;;;;;18.70;48.60;;;;;;5122963;22;43036;-81
2022/03/31 06:09:23;;;;;;;;;;;18.70;48.50;;;;;;5127923;27;43421;-81
2022/03/31 06:11:49;;;;;;;;;;;18.60;48.60;;;;;;5128254;27;42878;-81
2022/03/31 06:14:14;;;;;;;;;;;18.70;48.70;;;;;;5127306;27;43316;-81
2022/03/31 06:16:40;;;;;;;;;;;18.60;49.10;;;;;;5128322;27;42785;-80
2022/03/31 06:19:08;;;;;;;;;;;18.60;49.00;;;;;;5126848;27;42928;-78
2022/03/31 06:21:34;;;;;;;;;;;18.40;49.40;;;;;;5127606;27;43035;-79
2022/03/31 06:24:00;;;;;;;;;;;18.50;49.50;;;;;;5127732;27;44618;-79
2022/03/31 06:26:26;;;;;;;;;;;18.30;49.50;;;;;;5127760;27;42965;-79
2022/03/31 06:28:51;;;;;;;;;;;18.50;49.70;;;;;;5127382;27;43584;-79
2022/03/31 06:31:17;;;;;;;;;;;18.60;48.90;;;;;;5127116;27;42867;-79
2022/03/31 06:33:42;;;;;;;;;;;18.60;48.90;;;;;;5127531;27;44154;-79
2022/03/31 06:36:08;;;;;;;;;;;18.40;49.40;;;;;;5127808;27;42939;-79
2022/03/31 06:38:34;;;;;;;;;;;18.50;48.90;;;;;;5127280;27;42942;-79
2022/03/31 06:41:14;;;;;;;;;;;18.40;49.40;;;;;;5127516;27;42981;-79
2022/03/31 06:43:41;;;;;;;;;;;18.60;49.20;;;;;;5125116;27;43577;-80
2022/03/31 06:46:07;;;;;;;;;;;18.50;49.10;;;;;;5127249;27;43037;-79
2022/03/31 06:48:32;;;;;;;;;;;18.50;49.20;;;;;;5126499;27;43776;-78
2022/03/31 06:50:58;;;;;;;;;;;18.40;49.60;;;;;;5126604;27;43184;-80
2022/03/31 06:53:24;;;;;;;;;;;18.40;49.00;;;;;;5127246;27;43674;-80
2022/03/31 06:55:50;;;;;;;;;;;18.40;49.00;;;;;;5126808;27;43195;-79
2022/03/31 06:58:16;;;;;;;;;;;18.20;49.40;;;;;;5125885;27;44290;-80
2022/03/31 07:00:42;;;;;;;;;;;18.40;49.50;;;;;;5126406;27;43038;-80
2022/03/31 07:03:07;;;;;;;;;;;18.30;49.80;;;;;;5127195;27;43656;-80
2022/03/31 07:05:38;;;;;;;;;;;18.40;49.60;;;;;;5127119;27;42991;-79
2022/03/31 07:08:04;;;;;;;;;;;18.40;48.70;;;;;;5116732;27;43749;-77
2022/03/31 07:10:30;;;;;;;;;;;18.40;49.60;;;;;;5119363;27;43018;-79
2022/03/31 07:12:55;;;;;;;;;;;18.30;49.90;;;;;;5120588;27;43499;-78
2022/03/31 07:15:21;;;;;;;;;;;;;;;;;;5125465;27;42993;-79
2022/03/31 07:17:47;;;;;;;;;;;18.40;50.00;;;;;;5121589;27;43301;-80
2022/03/31 07:20:13;;;;;;;;;;;18.40;49.80;;;;;;5123362;27;42994;-80
2022/03/31 07:22:43;;;;;;;;;;;18.20;49.40;;;;;;5102979;27;45238;-81
2022/03/31 07:25:08;;;;;;;;;;;18.50;49.80;;;;;;5113884;27;43061;-81
2022/03/31 07:27:34;;;;;;;;;;;;;;;;;;5122988;27;43694;-82
2022/03/31 07:30:00;;;;;;;;;;;18.30;49.50;;;;;;5106902;27;42787;-81
2022/03/31 07:32:25;;;;;;;;;;;18.30;50.10;;;;;;5115061;27;43066;-82
2022/03/31 07:34:51;;;;;;;;;;;18.30;49.60;;;;;;5126941;27;42905;-82
2022/03/31 07:37:16;;;;;;;;;;;18.30;49.50;;;;;;5126807;27;43256;-82
2022/03/31 07:39:45;;;;;;;;;;;18.30;49.60;;;;;;5108263;27;43129;-82
2022/03/31 07:42:11;;;;;;;;;;;18.30;49.50;;;;;;5099982;27;44601;-78
2022/03/31 07:44:37;;;;;;;;;;;18.20;49.70;;;;;;5121151;27;43000;-78
2022/03/31 07:47:02;;;;;;;;;;;18.30;49.70;;;;;;5119659;27;43107;-79
2022/03/31 07:49:28;;;;;;;;;;;17.70;53.00;;;;;;5122827;27;43723;-77
2022/03/31 07:52:04;;;;;;;;;;;18.00;51.90;;;;;;5136857;27;43103;-77
2022/03/31 07:54:30;;;;;;;;;;;17.60;53.30;;;;;;5132048;27;43142;-78
2022/03/31 07:56:56;;;;;;;;;;;17.40;54.50;;;;;;5130416;27;43101;-76
2022/03/31 07:59:25;;;;;;;;;;;17.50;54.60;;;;;;5134560;27;44354;-78
2022/03/31 08:01:54;;;;;;;;;;;17.40;55.30;;;;;;5132698;27;43152;-76
2022/03/31 08:04:20;;;;;;;;;;;17.40;56.10;;;;;;5126598;27;42962;-77
2022/03/31 08:06:45;;;;;;;;;;;17.40;56.00;;;;;;5131470;27;43027;-76
2022/03/31 08:09:13;;;;;;;;;;;17.50;56.90;;;;;;5131689;27;43510;-77
2022/03/31 08:11:39;;;;;;;;;;;17.10;56.30;;;;;;5132682;27;43628;-76
2022/03/31 08:14:05;;;;;;;;;;;17.20;56.40;;;;;;5125818;27;43558;-76
2022/03/31 08:16:32;;;;;;;;;;;17.20;55.90;;;;;;5127680;27;43068;-75
2022/03/31 08:18:58;;;;;;;;;;;17.20;56.50;;;;;;5132207;27;43039;-76
2022/03/31 08:21:23;;;;;;;;;;;17.30;56.70;;;;;;5130752;27;43194;-76
2022/03/31 08:23:49;;;;;;;;;;;17.30;57.20;;;;;;5129284;27;43834;-75
2022/03/31 08:26:14;;;;;;;;;;;17.30;57.40;;;;;;5127542;27;43305;-75
2022/03/31 08:28:40;;;;;;;;;;;17.40;57.10;;;;;;5126150;27;43023;-75
2022/03/31 08:31:06;;;;;;;;;;;17.20;57.50;;;;;;5132035;27;43145;-76
2022/03/31 08:33:31;;;;;;;;;;;17.60;57.10;;;;;;5131134;27;43023;-79
2022/03/31 08:35:57;;;;;;;;;;;17.40;56.90;;;;;;5131050;27;42955;-76
2022/03/31 08:38:23;;;;;;;;;;;17.30;56.70;;;;;;5130226;27;43046;-79
2022/03/31 08:40:49;;;;;;;;;;;17.30;56.40;;;;;;5130502;27;43000;-77
2022/03/31 08:43:14;;;;;;;;;;;17.40;56.40;;;;;;5131976;27;43610;-77
2022/03/31 08:45:40;;;;;;;;;;;17.40;56.20;;;;;;5127196;27;42999;-80
2022/03/31 08:48:06;;;;;;;;;;;17.50;56.00;;;;;;5124401;27;43575;-78
2022/03/31 08:50:33;;;;;;;;;;;17.40;56.10;;;;;;5130554;27;43624;-78
2022/03/31 08:52:58;;;;;;;;;;;17.30;56.50;;;;;;5130240;27;43069;-81
2022/03/31 08:55:24;;;;;;;;;;;17.30;56.40;;;;;;5130946;27;42971;-79
2022/03/31 08:57:50;;;;;;;;;;;17.30;56.10;;;;;;5130836;27;43559;-76
2022/03/31 09:00:17;;;;;;;;;;;17.20;56.30;;;;;;5130559;27;43087;-80
2022/03/31 09:03:02;;;;;;;;;;;17.50;55.90;;;;;;5121086;27;42974;-80
2022/03/31 09:05:35;;;;;;;;;;;17.60;56.00;;;;;;5114575;27;43088;-78
2022/03/31 09:08:02;;;;;;;;;;;17.50;55.40;;;;;;5113309;27;43923;-78
2022/03/31 09:10:44;;;;;;;;;;;17.50;55.30;;;;;;5116495;27;42990;-79
2022/03/31 09:13:23;;;;;;;;;;;17.50;54.50;;;;;;5113205;27;43763;-75
2022/03/31 09:15:50;;;;;;;;;;;17.50;54.90;;;;;;5114120;27;43019;-78
2022/03/31 09:18:20;;;;;;;;;;;17.50;54.30;;;;;;5095728;27;44346;-76
2022/03/31 09:20:47;;;;;;;;;;;17.60;54.00;;;;;;5095949;27;43210;-75
2022/03/31 09:23:16;;;;;;;;;;;17.40;53.20;;;;;;5095427;27;43459;-76
2022/03/31 09:25:41;;;;;;;;;;;17.30;50.70;;;;;;5095990;27;42956;-76
2022/03/31 09:28:10;;;;;;;;;;;17.30;51.60;;;;;;5093645;27;43602;-76
2022/03/31 09:30:42;;;;;;;;;;;17.50;51.20;;;;;;5103624;27;43402;-76
2022/03/31 09:33:07;;;;;;;;;;;17.80;50.80;;;;;;5106032;27;43039;-75
2022/03/31 09:35:34;;;;;;;;;;;20.30;51.40;;;;;;5113406;27;43932;-76
2022/03/31 09:37:59;;;;;;;;;;;18.20;50.00;;;;;;5126137;27;43051;-75
2022/03/31 09:40:34;;;;;;;;;;;18.00;49.90;;;;;;5106873;27;43197;-76
2022/03/31 09:43:00;;;;;;;;;;;18.20;50.70;;;;;;5105261;27;43513;-75
2022/03/31 09:45:43;;;;;;;;;;;17.80;50.30;;;;;;5108453;27;43146;-77
2022/03/31 09:48:20;;;;;;;;;;;18.20;49.60;;;;;;5107086;27;43283;-75
2022/03/31 09:50:46;;;;;;;;;;;18.30;49.60;;;;;;5105634;27;43242;-79
2022/03/31 09:53:11;;;;;;;;;;;18.30;50.70;;;;;;5108257;27;43232;-80
2022/03/31 09:55:38;;;;;;;;;;;18.30;50.60;;;;;;5105020;27;42944;-76
2022/03/31 09:58:04;;;;;;;;;;;18.40;50.90;;;;;;5096098;27;43020;-80
2022/03/31 10:00:30;;;;;;;;;;;17.90;50.70;;;;;;5101922;27;43036;-79
2022/03/31 10:02:56;;;;;;;;;;;17.70;51.50;;;;;;5101864;27;43550;-78
2022/03/31 10:05:22;;;;;;;;;;;17.70;51.60;;;;;;5095532;27;42930;-76
2022/03/31 10:07:52;;;;;;;;;;;17.70;52.20;;;;;;5097052;27;43766;-75
2022/03/31 10:10:17;;;;;;;;;;;17.70;52.20;;;;;;5096305;27;42975;-76
2022/03/31 10:13:03;;;;;;;;;;;17.50;52.20;;;;;;5093297;27;43642;-76
2022/03/31 10:15:33;;;;;;;;;;;17.50;52.20;;;;;;5083812;27;42822;-76
2022/03/31 10:17:59;;;;;;;;;;;17.40;52.40;;;;;;5105159;27;43558;-76
2022/03/31 10:20:25;;;;;;;;;;;17.60;52.00;;;;;;5105759;27;42979;-77
2022/03/31 10:25:42;;;;;;;;;;;17.40;52.70;;;;;;5103987;27;42878;-76
2022/03/31 10:28:09;;;;;;;;;;;17.60;53.30;;;;;;5091684;27;42823;-76
2022/03/31 10:30:35;;;;;;;;;;;17.40;52.70;;;;;;5094807;27;42977;-77
2022/03/31 10:33:05;;;;;;;;;;;17.50;52.80;;;;;;5085161;27;44116;-77
2022/03/31 10:35:31;;;;;;;;;;;17.50;52.60;;;;;;5105490;27;43162;-78
2022/03/31 10:38:33;;;;;;;;;;;17.40;52.50;;;;;;5115309;27;43993;-75
2022/03/31 10:41:08;;;;;;;;;;;17.40;52.20;;;;;;5070406;27;42959;-75
2022/03/31 10:43:36;;;;;;;;;;;17.50;52.40;;;;;;5113972;27;45476;-78
2022/03/31 10:46:12;;;;;;;;;;;17.40;52.50;;;;;;5099422;27;42918;-76
2022/03/31 10:48:38;;;;;;;;;;;17.60;52.00;;;;;;5108265;27;43228;-78
2022/03/31 10:51:05;;;;;;;;;;;17.60;52.00;;;;;;5099585;27;42984;-77
2022/03/31 10:53:31;;;;;;;;;;;17.70;51.60;;;;;;5103963;27;44605;-77
2022/03/31 10:55:57;;;;;;;;;;;17.80;51.40;;;;;;5088960;27;43806;-76
2022/03/31 10:58:28;;;;;;;;;;;18.10;51.00;;;;;;5095158;27;43794;-77
2022/03/31 11:00:57;;;;;;;;;;;18.00;50.90;;;;;;5094524;27;42937;-76
2022/03/31 11:03:24;;;;;;;;;;;18.20;51.30;;;;;;5103220;27;43655;-77
2022/03/31 11:05:50;;;;;;;;;;;18.10;51.30;;;;;;5104692;27;42931;-75
2022/03/31 11:08:19;;;;;;;;;;;18.10;50.90;;;;;;5096271;27;42922;-79
2022/03/31 11:10:49;;;;;;;;;;;18.10;51.40;;;;;;5090152;27;43151;-77
2022/03/31 11:13:16;;;;;;;;;;;18.30;50.80;;;;;;5093835;27;43768;-78
2022/03/31 11:15:54;;;;;;;;;;;18.20;51.30;;;;;;5094274;27;43063;-78
2022/03/31 11:18:21;;;;;;;;;;;18.50;50.20;;;;;;5097313;27;43030;-78
2022/03/31 11:20:54;;;;;;;;;;;18.30;50.80;;;;;;5093614;27;43552;-78
2022/03/31 11:23:20;;;;;;;;;;;18.10;51.00;;;;;;5095551;27;43933;-79
2022/03/31 11:25:46;;;;;;;;;;;18.10;50.60;;;;;;5089192;27;43307;-78
2022/03/31 11:28:13;;;;;;;;;;;18.30;50.50;;;;;;5083735;27;43134;-78
2022/03/31 11:30:39;;;;;;;;;;;18.30;50.40;;;;;;5081377;27;43181;-74
2022/03/31 11:33:09;;;;;;;;;;;18.20;50.60;;;;;;5082698;27;43534;-79
2022/03/31 11:35:35;;;;;;;;;;;18.20;50.30;;;;;;5101156;27;43076;-78
2022/03/31 11:38:01;;;;;;;;;;;18.20;50.80;;;;;;5084568;27;43005;-77
2022/03/31 11:40:29;;;;;;;;;;;18.20;51.00;;;;;;5084031;27;43008;-76
2022/03/31 11:42:56;;;;;;;;;;;18.20;50.80;;;;;;5084259;27;42949;-77
2022/03/31 11:45:27;;;;;;;;;;;18.20;50.80;;;;;;5085084;27;42915;-78
2022/03/31 11:48:09;;;;;;;;;;;17.50;49.80;;;;;;5084877;27;42985;-78
2022/03/31 11:50:36;;;;;;;;;;;18.20;50.50;;;;;;5099922;27;43095;-79
2022/03/31 11:53:03;;;;;;;;;;;18.40;50.20;;;;;;5084987;27;43435;-78
2022/03/31 11:55:28;;;;;;;;;;;18.30;50.90;;;;;;5083828;27;43057;-77
2022/03/31 11:57:56;;;;;;;;;;;18.30;50.90;;;;;;5083778;28;42875;-76
2022/03/31 12:00:22;;;;;;;;;;;18.30;50.50;;;;;;5100361;27;43018;-78
2022/03/31 12:02:58;;;;;;;;;;;18.40;50.80;;;;;;5084359;27;43113;-77
2022/03/31 12:05:24;;;;;;;;;;;;;;;;;;5085119;28;43078;-78
2022/03/31 12:07:51;;;;;;;;;;;18.20;50.40;;;;;;5084792;28;43791;-78
2022/03/31 12:10:18;;;;;;;;;;;18.30;50.80;;;;;;5083320;27;43173;-78
2022/03/31 12:12:48;;;;;;;;;;;18.30;50.70;;;;;;5098539;27;42976;-78
2022/03/31 12:15:18;;;;;;;;;;;18.40;50.40;;;;;;5083506;27;42759;-78
2022/03/31 12:17:54;;;;;;;;;;;18.30;50.50;;;;;;5090338;27;44745;-78
2022/03/31 12:20:20;;;;;;;;;;;18.40;50.30;;;;;;5104701;27;43090;-77
2022/03/31 12:22:46;;;;;;;;;;;18.50;48.80;;;;;;5108091;27;43041;-77
2022/03/31 12:25:12;;;;;;;;;;;18.50;48.20;;;;;;5111611;27;43022;-77
2022/03/31 12:27:46;;;;;;;;;;;18.40;48.80;;;;;;5112224;27;43034;-76
2022/03/31 12:30:15;;;;;;;;;;;18.50;48.30;;;;;;5111491;27;43216;-77
2022/03/31 12:32:47;;;;;;;;;;;18.50;47.90;;;;;;5111979;27;43302;-77
2022/03/31 12:35:13;;;;;;;;;;;18.60;48.10;;;;;;5110322;27;43078;-76
2022/03/31 12:37:39;;;;;;;;;;;18.50;48.20;;;;;;5102929;27;43529;-77
2022/03/31 12:40:09;;;;;;;;;;;18.50;48.60;;;;;;5107381;27;43039;-76
2022/03/31 12:42:36;;;;;;;;;;;18.40;47.60;;;;;;5111782;27;43440;-77
2022/03/31 12:45:14;;;;;;;;;;;18.70;48.20;;;;;;5123524;27;42921;-78
2022/03/31 12:47:44;;;;;;;;;;;18.50;48.60;;;;;;5119731;27;43012;-78
2022/03/31 12:50:15;;;;;;;;;;;18.60;48.50;;;;;;5116418;27;43003;-78
2022/03/31 12:52:50;;;;;;;;;;;18.50;48.60;;;;;;5111441;27;43561;-78
2022/03/31 12:55:16;;;;;;;;;;;18.40;48.50;;;;;;5127209;27;43375;-79
2022/03/31 12:57:41;;;;;;;;;;;18.50;49.10;;;;;;5114836;27;43485;-79
2022/03/31 13:00:09;;;;;;;;;;;18.60;48.50;;;;;;5117897;27;43068;-77
2022/03/31 13:02:37;;;;;;;;;;;18.60;48.80;;;;;;5117167;27;43663;-78
2022/03/31 13:05:04;;;;;;;;;;;18.80;48.80;;;;;;5108632;27;43088;-76
2022/03/31 13:07:30;;;;;;;;;;;18.60;48.70;;;;;;5124444;27;43458;-78
2022/03/31 13:09:56;;;;;;;;;;;18.80;48.90;;;;;;5111931;27;42929;-76
2022/03/31 13:12:23;;;;;;;;;;;18.80;48.90;;;;;;5119215;27;42937;-77
2022/03/31 13:14:49;;;;;;;;;;;18.50;49.00;;;;;;5120384;27;43036;-76
2022/03/31 13:17:15;;;;;;;;;;;18.60;48.80;;;;;;5111902;27;43889;-76
2022/03/31 13:19:41;;;;;;;;;;;18.70;49.10;;;;;;5115368;27;42900;-76
2022/03/31 13:22:07;;;;;;;;;;;18.30;49.10;;;;;;5116114;27;42960;-77
2022/03/31 13:24:33;;;;;;;;;;;18.60;49.40;;;;;;5116745;27;43309;-76
2022/03/31 13:26:59;;;;;;;;;;;18.60;49.80;;;;;;5117242;27;43323;-77
2022/03/31 13:29:24;;;;;;;;;;;18.60;50.40;;;;;;5112981;27;43058;-76
2022/03/31 13:31:51;;;;;;;;;;;18.70;50.00;;;;;;5116962;27;42979;-77
2022/03/31 13:34:19;;;;;;;;;;;18.70;50.00;;;;;;5117424;27;42974;-79
2022/03/31 13:36:44;;;;;;;;;;;18.60;50.20;;;;;;5111219;27;43798;-77
2022/03/31 13:39:11;;;;;;;;;;;18.60;50.90;;;;;;5102897;27;43038;-74
2022/03/31 13:41:38;;;;;;;;;;;18.60;51.90;;;;;;5107054;27;43061;-76
2022/03/31 13:44:04;;;;;;;;;;;18.40;52.00;;;;;;5119548;27;42995;-76
2022/03/31 13:46:29;;;;;;;;;;;18.50;51.60;;;;;;5115446;27;43801;-77
2022/03/31 13:48:55;;;;;;;;;;;18.40;51.60;;;;;;5115902;27;43255;-78
2022/03/31 13:51:20;;;;;;;;;;;18.50;51.60;;;;;;5115539;27;43969;-76
2022/03/31 13:53:48;;;;;;;;;;;18.30;51.50;;;;;;5117381;27;43524;-75
2022/03/31 13:56:14;;;;;;;;;;;18.50;52.00;;;;;;5116113;27;43481;-77
2022/03/31 14:01:34;;;;;;;;;;;18.50;51.10;;;;;;5117709;27;42977;-77
2022/03/31 14:04:01;;;;;;;;;;;18.60;51.00;;;;;;5118582;27;43328;-75
2022/03/31 14:06:29;;;;;;;;;;;18.50;51.30;;;;;;5116991;27;43152;-76
2022/03/31 14:08:55;;;;;;;;;;;18.40;51.50;;;;;;5117027;27;42983;-75
2022/03/31 14:11:21;;;;;;;;;;;18.60;51.80;;;;;;5116392;27;42952;-75
2022/03/31 14:13:47;;;;;;;;;;;18.60;51.80;;;;;;5115265;27;43040;-75
2022/03/31 14:16:13;;;;;;;;;;;18.70;52.40;;;;;;5113798;27;44177;-75
2022/03/31 14:18:41;;;;;;;;;;;18.60;52.20;;;;;;5112132;27;43284;-76
2022/03/31 14:21:17;;;;;;;;;;;18.70;52.30;;;;;;5104946;27;43743;-78
2022/03/31 14:23:44;;;;;;;;;;;18.60;52.10;;;;;;5103537;27;43039;-76
2022/03/31 14:26:12;;;;;;;;;;;18.90;52.10;;;;;;5105038;27;43489;-77